CYPG

Portage La Prairie Airport

Portage, , Canada
METAR CYPG 181200Z 30004KT 15SM FEW180 14/10 A3014 RMK AC1 AC TR SLP209
Observed Flight Rules
Jun-18 @ 12:00 UTC (an hour ago) Visual Flight Rules
Wind Visibility Clouds
300° at 4 knots 15 miles
  • Few at 18,000' AGL
Temperatures Readings
Current 14°C / 57°F
Dewpoint 10°C / 50°F
Humidity 77%
Altimeter 30.14" Hg
Pressure 1020.9 hPa
Elevation 269
METAR CYPG 181200Z 30004KT 15SM FEW180 14/10 A3014 RMK AC1 AC TR SLP209
Observed Flight Rules
Jun-18 @ 12:00 UTC
(an hour ago)
VFR
Wind Visibility
300° at 4 knots 15 miles
Clouds
  • Few at 18,000' AGL
Temperature Dewpoint
14°C / 57°F 10°C / 50°F
Humidity Altimeter Pressure
77% 30.14" Hg 1020.9 hPa